Time;durP1;ratioP1;P1;durP2;ratioP2;P2;SDS_P1;SDS_P2;PMS_P1;PMS_P2;Temp;Humidity;BMP_temperature;BMP_pressure;BME280_temperature;BME280_humidity;BME280_pressure;Samples;Min_cycle;Max_cycle;Signal;HPM_P1;HPM_P2
2024/03/11 00:00:33;;;;;;;17.77;8.63;;;;;;;4.44;65.78;100050.06;1788488;80;34767;-70
2024/03/11 00:03:05;;;;;;;13.88;8.45;;;;;;;4.43;65.59;100043.63;1746133;81;25644;-69
2024/03/11 00:05:35;;;;;;;16.27;9.95;;;;;;;4.43;65.33;100039.62;1750522;82;25458;-69
2024/03/11 00:08:01;;;;;;;14.60;9.28;;;;;;;4.42;65.33;100035.33;1748392;82;28126;-71
2024/03/11 00:10:27;;;;;;;16.02;9.18;;;;;;;4.44;65.01;100039.86;1788229;80;25593;-69
2024/03/11 00:12:55;;;;;;;15.88;8.48;;;;;;;4.43;64.83;100041.75;1788552;80;25402;-70
2024/03/11 00:15:24;;;;;;;12.43;7.62;;;;;;;4.44;65.04;100033.98;1746693;81;25964;-68
2024/03/11 00:17:51;;;;;;;15.85;8.53;;;;;;;4.45;64.78;100034.78;1744877;81;25626;-68
2024/03/11 00:20:23;;;;;;;15.20;8.00;;;;;;;4.46;64.35;100037.70;1750136;82;27367;-69
2024/03/11 00:22:49;;;;;;;14.45;9.23;;;;;;;4.45;64.41;100040.93;1788190;80;25780;-70
2024/03/11 00:25:15;;;;;;;13.25;8.33;;;;;;;4.45;63.99;100038.80;1745236;81;25685;-70
2024/03/11 00:27:44;;;;;;;14.18;8.00;;;;;;;4.45;64.08;100036.13;1745769;82;25553;-70
2024/03/11 00:30:15;;;;;;;15.30;8.55;;;;;;;4.44;63.87;100033.98;1745745;81;25427;-71
2024/03/11 00:32:47;;;;;;;13.53;7.55;;;;;;;4.46;63.68;100033.69;1787194;80;27380;-70
2024/03/11 00:35:16;;;;;;;16.25;8.38;;;;;;;4.46;63.46;100033.69;1788429;80;25559;-70
2024/03/11 00:37:42;;;;;;;;;;;;;;;4.47;63.50;100032.63;1791177;80;25626;-70
2024/03/11 00:40:14;;;;;;;14.60;7.70;;;;;;;4.48;63.45;100040.94;1788586;80;25613;-69
2024/03/11 00:42:43;;;;;;;;;;;;;;;4.47;63.06;100042.79;1791289;80;25547;-70
2024/03/11 00:45:12;;;;;;;13.85;7.35;;;;;;;4.48;62.92;100039.59;1788737;80;28357;-70
2024/03/11 00:47:42;;;;;;;13.58;8.18;;;;;;;4.46;62.68;100038.53;1788652;80;31366;-71
2024/03/11 00:50:13;;;;;;;13.53;8.10;;;;;;;4.48;62.79;100027.55;1747191;81;25741;-70
2024/03/11 00:52:43;;;;;;;16.00;8.25;;;;;;;4.50;62.67;100026.72;1742917;82;25478;-70
2024/03/11 00:55:12;;;;;;;15.00;8.30;;;;;;;4.52;62.39;100031.81;1743053;82;25602;-70
2024/03/11 00:57:41;;;;;;;12.73;8.15;;;;;;;4.52;62.05;100017.88;1743436;82;28091;-70
2024/03/11 01:00:12;;;;;;;14.03;7.95;;;;;;;4.55;61.98;100020.55;1751008;82;25439;-70
2024/03/11 01:02:41;;;;;;;13.80;8.60;;;;;;;4.55;61.64;100018.66;1750997;82;25595;-70
2024/03/11 01:05:11;;;;;;;14.93;8.50;;;;;;;4.57;61.33;100019.73;1751095;82;26031;-70
2024/03/11 01:07:39;;;;;;;14.65;7.78;;;;;;;4.58;61.06;100022.14;1751104;82;25455;-71
2024/03/11 01:10:09;;;;;;;16.62;8.68;;;;;;;4.59;60.88;100018.36;1750981;82;27448;-70
2024/03/11 01:12:35;;;;;;;14.43;8.50;;;;;;;4.60;60.60;100006.59;1750855;82;25453;-69
2024/03/11 01:15:01;;;;;;;12.03;7.30;;;;;;;4.62;60.85;100015.69;1750956;82;25464;-69
2024/03/11 01:17:27;;;;;;;11.78;7.83;;;;;;;4.63;60.41;100020.77;1750921;82;25611;-69
2024/03/11 01:19:54;;;;;;;13.68;7.58;;;;;;;4.63;60.15;100013.25;1750932;82;25439;-69
2024/03/11 01:22:21;;;;;;;14.80;7.72;;;;;;;4.65;60.14;100015.14;1750927;81;27324;-69
2024/03/11 01:24:51;;;;;;;15.63;7.78;;;;;;;4.66;60.00;100009.48;1750973;81;25637;-69
2024/03/11 01:27:17;;;;;;;15.50;8.03;;;;;;;4.67;59.99;100015.66;1751093;81;25417;-69
2024/03/11 01:29:43;;;;;;;14.63;7.78;;;;;;;4.68;59.88;100018.07;1750898;81;25991;-69
2024/03/11 01:32:12;;;;;;;14.93;8.15;;;;;;;4.68;60.08;100012.71;1750955;81;25478;-69
2024/03/11 01:34:44;;;;;;;14.70;8.75;;;;;;;4.68;59.89;100012.71;1751126;82;27199;-69
2024/03/11 01:37:14;;;;;;;15.88;8.98;;;;;;;4.66;60.28;100010.82;1750879;82;26111;-69
2024/03/11 01:39:46;;;;;;;14.78;8.30;;;;;;;4.63;60.19;100010.58;1750904;81;25639;-69
2024/03/11 01:42:16;;;;;;;18.80;8.55;;;;;;;4.62;59.93;100013.01;1750911;82;25411;-69
2024/03/11 01:44:52;;;;;;;15.20;8.58;;;;;;;4.59;59.90;100000.95;1750984;82;25469;-68
2024/03/11 01:47:24;;;;;;;19.60;8.43;;;;;;;4.58;59.76;99987.83;1750922;82;27419;-69
2024/03/11 01:49:54;;;;;;;17.27;8.10;;;;;;;4.55;59.69;100011.97;1750869;82;25155;-69
2024/03/11 01:52:31;;;;;;;17.40;8.10;;;;;;;4.55;59.77;100002.59;1713512;81;25552;-69
2024/03/11 01:55:03;;;;;;;15.10;9.38;;;;;;;4.55;59.46;99992.42;1710229;83;26343;-69
2024/03/11 01:57:33;;;;;;;14.90;8.88;;;;;;;4.55;59.42;99997.78;1710137;83;25580;-69
2024/03/11 01:59:59;;;;;;;14.00;8.80;;;;;;;4.54;59.42;99996.96;1710208;83;27327;-69
2024/03/11 02:02:27;;;;;;;15.20;7.92;;;;;;;4.54;59.29;99996.17;1710212;83;25628;-70
2024/03/11 02:04:57;;;;;;;13.93;9.08;;;;;;;4.52;59.20;99997.78;1710367;83;25562;-70
2024/03/11 02:07:25;;;;;;;13.90;8.03;;;;;;;4.51;59.05;99998.84;1710204;83;25625;-69
2024/03/11 02:09:53;;;;;;;14.43;8.23;;;;;;;4.51;59.19;99999.39;1710328;83;25616;-69
2024/03/11 02:12:19;;;;;;;17.52;9.05;;;;;;;4.49;59.29;99994.30;1710333;83;27336;-69
2024/03/11 02:14:49;;;;;;;17.20;8.23;;;;;;;4.46;59.28;100001.03;1710146;83;25623;-69
2024/03/11 02:17:19;;;;;;;13.70;8.18;;;;;;;4.45;59.10;99988.70;1710197;83;25421;-69
2024/03/11 02:19:47;;;;;;;15.35;8.08;;;;;;;4.44;59.10;99989.80;1710231;83;25866;-69
2024/03/11 02:22:17;;;;;;;15.75;8.23;;;;;;;4.42;58.93;99982.55;1709434;82;25217;-69
2024/03/11 02:24:44;;;;;;;15.60;8.10;;;;;;;4.40;59.00;99978.02;1710254;83;27351;-69
2024/03/11 02:27:12;;;;;;;16.00;8.05;;;;;;;4.36;58.87;99975.64;1710126;83;25445;-69
2024/03/11 02:29:41;;;;;;;14.70;8.30;;;;;;;4.35;58.88;99982.05;1710219;83;25635;-68
2024/03/11 02:32:08;;;;;;;18.57;8.50;;;;;;;4.35;58.94;99985.28;1710183;83;25638;-68
2024/03/11 02:34:34;;;;;;;14.25;7.20;;;;;;;4.32;58.81;99981.81;1710246;83;25650;-68
2024/03/11 02:37:02;;;;;;;14.50;8.60;;;;;;;4.28;58.86;99983.69;1710202;83;26985;-68
2024/03/11 02:39:33;;;;;;;13.38;7.83;;;;;;;4.28;58.86;99993.61;1710131;83;25634;-68
2024/03/11 02:41:58;;;;;;;11.70;7.80;;;;;;;4.26;58.77;99975.14;1709369;83;25397;-68
2024/03/11 02:44:26;;;;;;;16.90;8.33;;;;;;;4.23;58.78;99967.64;1710175;83;25788;-68
2024/03/11 02:46:54;;;;;;;14.10;8.48;;;;;;;4.21;59.08;99963.66;1710262;83;25466;-68
2024/03/11 02:49:20;;;;;;;17.10;8.50;;;;;;;4.18;58.94;99966.33;1710285;83;27371;-68
2024/03/11 02:51:46;;;;;;;15.20;8.58;;;;;;;4.17;58.75;99975.97;1730454;82;25599;-69
2024/03/11 02:54:14;;;;;;;15.05;8.63;;;;;;;4.15;58.94;99976.24;1747900;82;25716;-69
2024/03/11 02:56:41;;;;;;;15.85;8.30;;;;;;;4.14;58.88;99978.67;1747922;81;25526;-69
2024/03/11 02:59:07;;;;;;;15.55;8.40;;;;;;;4.12;58.95;99978.16;1747927;81;25643;-69
2024/03/11 03:01:33;;;;;;;13.70;7.80;;;;;;;4.10;58.79;99981.09;1747849;82;27318;-69
2024/03/11 03:04:05;;;;;;;15.78;8.38;;;;;;;4.09;58.60;99977.36;1747852;82;26214;-69
2024/03/11 03:06:33;;;;;;;11.87;7.77;;;;;;;4.07;58.70;99976.28;1748169;81;25606;-69
2024/03/11 03:09:03;;;;;;;16.48;7.80;;;;;;;4.08;58.73;99985.11;1747957;82;25650;-69
2024/03/11 03:11:31;;;;;;;13.93;7.67;;;;;;;4.05;58.68;99982.97;1747952;82;25574;-69
2024/03/11 03:13:57;;;;;;;14.68;8.13;;;;;;;4.02;58.67;99979.50;1747941;82;27263;-70
2024/03/11 03:16:23;;;;;;;17.57;8.53;;;;;;;4.00;58.76;99979.80;1747836;82;25458;-70
2024/03/11 03:18:51;;;;;;;16.15;9.28;;;;;;;3.98;58.71;99981.92;1747877;81;25570;-69
2024/03/11 03:21:19;;;;;;;14.15;8.10;;;;;;;3.97;58.68;99977.66;1747863;82;25468;-69
2024/03/11 03:23:45;;;;;;;15.03;8.30;;;;;;;3.96;58.76;99977.38;1747920;81;25675;-69
2024/03/11 03:26:15;;;;;;;14.70;8.35;;;;;;;3.93;58.68;99968.55;1747918;82;28338;-69
2024/03/11 03:28:41;;;;;;;15.05;8.88;;;;;;;3.93;58.77;99975.24;1747792;81;25726;-69
2024/03/11 03:31:09;;;;;;;13.68;7.80;;;;;;;3.91;58.81;99967.48;1747904;82;25573;-69
2024/03/11 03:33:38;;;;;;;12.03;7.55;;;;;;;3.91;58.88;99966.69;1747854;81;25405;-69
2024/03/11 03:36:09;;;;;;;15.25;8.40;;;;;;;3.88;58.76;99962.70;1747889;81;25596;-69
2024/03/11 03:38:37;;;;;;;13.83;7.95;;;;;;;3.87;58.89;99951.72;1748048;81;26862;-69
2024/03/11 03:41:05;;;;;;;14.60;7.85;;;;;;;3.88;58.87;99946.64;1747810;81;25635;-69
2024/03/11 03:43:33;;;;;;;15.32;8.18;;;;;;;3.86;58.81;99952.78;1747916;82;25639;-69
2024/03/11 03:46:05;;;;;;;13.40;8.68;;;;;;;3.86;58.84;99960.02;1747872;81;25437;-70
2024/03/11 03:48:33;;;;;;;12.33;7.67;;;;;;;3.86;58.83;99960.81;1747954;81;25569;-70
2024/03/11 03:51:03;;;;;;;16.02;8.53;;;;;;;3.87;58.79;99956.28;1747837;81;27215;-70
2024/03/11 03:53:28;;;;;;;12.68;8.50;;;;;;;3.85;58.71;99965.13;1747135;81;25568;-70
2024/03/11 03:55:54;;;;;;;16.12;8.30;;;;;;;3.84;58.82;99952.80;1747864;81;25587;-69
2024/03/11 03:58:21;;;;;;;15.93;8.65;;;;;;;3.84;58.96;99956.81;1747809;82;25636;-70
2024/03/11 04:00:47;;;;;;;12.58;7.87;;;;;;;3.82;58.88;99956.30;1747884;81;25392;-69
2024/03/11 04:03:13;;;;;;;17.55;8.90;;;;;;;3.80;58.66;99968.61;1747886;82;27302;-69
2024/03/11 04:05:40;;;;;;;12.35;7.60;;;;;;;3.79;58.84;99967.53;1726752;82;25467;-69
2024/03/11 04:08:07;;;;;;;14.23;8.45;;;;;;;3.78;59.00;99972.61;1747880;81;25617;-70
2024/03/11 04:10:34;;;;;;;16.75;7.65;;;;;;;3.77;58.81;99971.02;1747932;81;25584;-69
2024/03/11 04:13:00;;;;;;;16.12;8.38;;;;;;;3.77;59.03;99961.66;1748124;82;25606;-69
2024/03/11 04:15:29;;;;;;;14.23;8.25;;;;;;;3.77;58.90;99968.34;1748091;82;27388;-69
2024/03/11 04:17:54;;;;;;;17.62;7.65;;;;;;;3.75;58.75;99969.95;1747109;81;25520;-69
2024/03/11 04:20:27;;;;;;;15.23;8.25;;;;;;;3.73;58.77;99966.75;1748099;81;25393;-69
2024/03/11 04:22:51;;;;;;;17.80;7.90;;;;;;;3.71;58.94;99971.55;1746018;81;25662;-69
2024/03/11 04:25:26;;;;;;;20.45;7.75;;;;;;;3.67;58.75;99967.28;1748038;82;25386;-69
2024/03/11 04:27:57;;;;;;;15.35;8.43;;;;;;;3.68;58.87;99965.43;1747722;81;27410;-69
2024/03/11 04:30:39;;;;;;;14.60;7.95;;;;;;;3.68;58.90;99975.59;1747984;81;25495;-70
2024/03/11 04:33:06;;;;;;;15.88;8.30;;;;;;;3.70;59.08;99983.34;1748045;82;25414;-68
2024/03/11 04:35:37;;;;;;;16.95;8.65;;;;;;;3.68;59.00;99970.78;1747989;82;25676;-69
2024/03/11 04:38:08;;;;;;;13.88;8.20;;;;;;;3.66;58.96;99978.25;1748141;82;25436;-68
2024/03/11 04:40:39;;;;;;;14.60;8.05;;;;;;;3.64;58.97;99975.84;1748062;82;27395;-68
2024/03/11 04:43:09;;;;;;;12.93;8.93;;;;;;;3.62;58.89;99973.98;1748007;82;25624;-67
2024/03/11 04:45:41;;;;;;;14.05;8.18;;;;;;;3.61;58.92;99976.41;1748050;81;25567;-68
2024/03/11 04:48:11;;;;;;;13.68;8.65;;;;;;;3.62;58.95;99971.30;1747985;81;25959;-68
2024/03/11 04:50:42;;;;;;;14.85;8.70;;;;;;;3.61;59.03;100000.99;1748071;81;25406;-68
2024/03/11 04:53:15;;;;;;;12.75;8.25;;;;;;;3.60;58.99;99974.79;1715196;82;28131;-68
2024/03/11 04:55:43;;;;;;;14.35;8.35;;;;;;;3.61;59.11;99971.05;1710277;83;25447;-70
2024/03/11 04:58:12;;;;;;;15.28;9.30;;;;;;;3.60;59.11;99976.13;1710249;83;25423;-68
2024/03/11 05:00:42;;;;;;;18.85;9.30;;;;;;;3.59;59.28;99963.81;1710188;83;25461;-68
2024/03/11 05:03:08;;;;;;;17.62;9.55;;;;;;;3.58;59.31;99966.23;1710339;83;25553;-68
2024/03/11 05:05:36;;;;;;;13.03;8.20;;;;;;;3.58;59.64;99957.42;1710273;83;28008;-67
2024/03/11 05:08:09;;;;;;;15.83;9.25;;;;;;;3.58;59.57;99964.11;1710187;83;25588;-67
2024/03/11 05:10:35;;;;;;;15.28;7.92;;;;;;;3.57;59.73;99967.84;1710270;83;25583;-67
2024/03/11 05:13:03;;;;;;;16.42;8.05;;;;;;;3.55;59.61;99972.13;1710241;83;25614;-67
2024/03/11 05:15:32;;;;;;;14.75;7.83;;;;;;;3.54;59.65;99967.32;1710385;83;25534;-67
2024/03/11 05:17:57;;;;;;;16.12;8.98;;;;;;;3.56;59.83;99963.04;1709587;83;27310;-67
2024/03/11 05:20:24;;;;;;;14.80;8.75;;;;;;;3.55;59.79;99964.09;1710154;83;25486;-67
2024/03/11 05:22:50;;;;;;;18.35;9.05;;;;;;;3.57;60.03;99964.63;1710244;83;25616;-67
2024/03/11 05:25:18;;;;;;;19.25;10.20;;;;;;;3.58;60.02;99962.23;1710243;83;25856;-67
2024/03/11 05:27:50;;;;;;;13.65;8.75;;;;;;;3.55;59.84;99960.09;1710153;83;25635;-67
2024/03/11 05:30:17;;;;;;;14.85;8.68;;;;;;;3.54;59.79;99955.28;1710325;83;28292;-68
2024/03/11 05:32:48;;;;;;;19.12;9.30;;;;;;;3.53;59.57;99963.03;1710277;83;25596;-68
2024/03/11 05:35:18;;;;;;;14.53;8.25;;;;;;;3.54;59.77;99961.97;1710325;83;25570;-68
2024/03/11 05:37:44;;;;;;;15.70;9.55;;;;;;;3.55;59.87;99965.44;1710250;83;25619;-68
2024/03/11 05:40:14;;;;;;;19.80;9.70;;;;;;;3.56;59.63;99957.69;1710280;83;25629;-69
2024/03/11 05:42:42;;;;;;;14.98;8.35;;;;;;;3.58;59.66;99968.91;1710366;83;27823;-69
2024/03/11 05:45:13;;;;;;;15.13;8.43;;;;;;;3.62;59.68;99967.84;1709539;83;25695;-69
2024/03/11 05:47:41;;;;;;;17.45;9.33;;;;;;;3.63;59.52;99961.42;1710240;83;25553;-69
2024/03/11 05:50:09;;;;;;;14.20;8.40;;;;;;;3.65;59.49;99956.05;1710290;83;25606;-68
2024/03/11 05:52:35;;;;;;;16.10;9.10;;;;;;;3.68;59.49;99965.43;1710411;82;25400;-69
2024/03/11 05:55:13;;;;;;;18.50;9.73;;;;;;;3.68;59.64;99967.56;1710269;83;27907;-69
2024/03/11 05:57:43;;;;;;;15.00;8.58;;;;;;;3.68;59.59;99976.13;1710220;83;25639;-69
2024/03/11 06:00:17;;;;;;;13.80;8.20;;;;;;;3.67;59.79;99972.63;1710319;83;25620;-69
2024/03/11 06:02:46;;;;;;;11.45;7.33;;;;;;;3.66;59.68;99968.88;1710222;83;26011;-72
2024/03/11 06:05:14;;;;;;;20.35;9.05;;;;;;;3.66;59.77;99970.22;1710250;83;25444;-70
2024/03/11 06:07:42;;;;;;;19.45;8.73;;;;;;;3.66;59.88;99967.03;1710238;83;27348;-70
2024/03/11 06:10:10;;;;;;;15.15;8.63;;;;;;;3.68;59.80;99970.78;1710236;83;25403;-70
2024/03/11 06:12:37;;;;;;;18.02;9.73;;;;;;;3.67;59.54;99973.97;1709786;83;25657;-70
2024/03/11 06:15:07;;;;;;;15.80;8.23;;;;;;;3.68;59.58;99974.25;1708941;83;25972;-70
2024/03/11 06:17:34;;;;;;;16.40;9.30;;;;;;;3.72;59.80;99984.66;1709581;83;25701;-70
2024/03/11 06:20:03;;;;;;;17.12;10.30;;;;;;;3.73;59.59;99989.49;1709683;83;27340;-70
2024/03/11 06:22:28;;;;;;;15.13;9.20;;;;;;;3.72;59.61;99980.64;1709371;83;25639;-69
2024/03/11 06:24:54;;;;;;;16.42;9.08;;;;;;;3.74;59.51;99986.52;1709765;83;25683;-70
2024/03/11 06:27:21;;;;;;;14.50;9.33;;;;;;;3.75;59.66;99987.34;1709976;83;25589;-70
2024/03/11 06:29:49;;;;;;;15.80;9.23;;;;;;;3.79;59.72;100006.33;1710269;83;25580;-70
2024/03/11 06:32:21;;;;;;;15.63;8.73;;;;;;;3.82;59.48;99991.08;1710232;83;27349;-70
2024/03/11 06:34:47;;;;;;;14.53;9.18;;;;;;;3.85;59.42;99983.85;1710155;83;25562;-70
2024/03/11 06:37:13;;;;;;;15.13;9.38;;;;;;;3.86;59.29;99993.47;1710205;83;25624;-70
2024/03/11 06:39:40;;;;;;;15.78;8.53;;;;;;;3.88;59.34;99993.98;1710216;83;25991;-70
2024/03/11 06:42:06;;;;;;;18.95;10.08;;;;;;;3.89;59.29;99996.39;1710194;83;25404;-70
2024/03/11 06:44:34;;;;;;;17.27;9.65;;;;;;;3.91;59.28;99992.91;1710212;83;27298;-70
2024/03/11 06:47:00;;;;;;;15.80;9.70;;;;;;;3.91;59.06;99994.79;1710158;83;25462;-69
2024/03/11 06:49:31;;;;;;;18.62;9.45;;;;;;;3.90;59.15;100000.69;1710234;83;25391;-69
2024/03/11 06:51:55;;;;;;;17.55;10.58;;;;;;;3.91;59.27;100001.48;1709002;82;26040;-70
2024/03/11 06:54:21;;;;;;;15.80;9.58;;;;;;;3.93;59.15;100018.06;1710341;83;25477;-69
2024/03/11 06:56:48;;;;;;;16.27;9.63;;;;;;;3.92;59.20;100001.20;1710260;83;27696;-69
2024/03/11 06:59:17;;;;;;;19.17;10.63;;;;;;;3.91;59.26;100008.17;1710239;83;25554;-70
2024/03/11 07:01:43;;;;;;;17.52;10.15;;;;;;;3.90;59.46;99994.54;1710354;83;25676;-70
2024/03/11 07:04:12;;;;;;;19.33;10.17;;;;;;;3.89;59.60;99999.07;1710391;83;25666;-69
2024/03/11 07:06:40;;;;;;;14.70;10.03;;;;;;;3.87;59.59;100008.45;1710239;83;25596;-69
2024/03/11 07:09:11;;;;;;;18.40;9.58;;;;;;;3.85;59.93;100001.25;1710210;83;27841;-69
2024/03/11 07:11:38;;;;;;;18.15;9.70;;;;;;;3.87;60.55;99998.55;1710182;83;25572;-70
2024/03/11 07:14:05;;;;;;;18.48;10.00;;;;;;;3.86;60.07;100000.16;1710207;83;25564;-69
2024/03/11 07:16:31;;;;;;;19.32;11.00;;;;;;;3.83;60.25;100004.70;1710156;83;25652;-69
2024/03/11 07:18:59;;;;;;;17.90;10.55;;;;;;;3.81;60.58;100002.30;1710243;83;25467;-69
2024/03/11 07:21:28;;;;;;;17.70;10.98;;;;;;;3.79;60.93;99998.30;1706923;83;27653;-69
2024/03/11 07:23:57;;;;;;;20.05;10.65;;;;;;;3.73;61.52;100002.33;1710174;83;25478;-70
2024/03/11 07:26:25;;;;;;;16.67;10.03;;;;;;;3.70;61.41;100006.08;1710221;83;25630;-69
2024/03/11 07:28:51;;;;;;;21.82;11.50;;;;;;;3.68;62.21;100002.33;1710152;83;25661;-69
2024/03/11 07:31:18;;;;;;;18.07;10.40;;;;;;;3.64;62.22;100005.27;1710211;83;25621;-69
2024/03/11 07:33:51;;;;;;;16.90;10.32;;;;;;;3.66;63.08;100003.14;1710226;83;26736;-69
2024/03/11 07:36:18;;;;;;;23.15;11.38;;;;;;;3.62;62.85;100002.61;1709125;83;25562;-69
2024/03/11 07:38:46;;;;;;;17.32;9.75;;;;;;;3.61;62.98;100002.33;1710291;83;25471;-69
2024/03/11 07:41:14;;;;;;;18.12;10.08;;;;;;;3.59;63.44;99999.13;1710103;83;25846;-70
2024/03/11 07:43:41;;;;;;;18.23;10.40;;;;;;;3.59;63.63;100007.16;1710293;83;25378;-70
2024/03/11 07:46:09;;;;;;;21.68;10.85;;;;;;;3.58;63.46;100001.01;1710165;83;27389;-69
2024/03/11 07:48:35;;;;;;;15.20;9.90;;;;;;;3.62;63.86;100006.08;1710136;83;25816;-67
2024/03/11 07:51:01;;;;;;;19.00;10.95;;;;;;;3.66;63.99;100006.33;1710213;83;25576;-67
2024/03/11 07:53:27;;;;;;;17.92;10.68;;;;;;;3.66;64.12;99991.11;1709998;82;25880;-67
2024/03/11 07:55:53;;;;;;;21.95;11.18;;;;;;;3.67;63.32;100010.63;1710152;83;25586;-67
2024/03/11 07:58:24;;;;;;;16.15;9.85;;;;;;;3.67;63.08;100003.94;1710166;83;27910;-67
2024/03/11 08:00:54;;;;;;;19.48;10.40;;;;;;;3.70;63.04;99999.39;1710027;83;25987;-67
2024/03/11 08:03:24;;;;;;;18.50;11.15;;;;;;;3.74;63.43;99997.77;1710169;83;25620;-66
2024/03/11 08:05:50;;;;;;;18.45;10.85;;;;;;;3.81;63.67;99995.61;1710286;83;25467;-67
2024/03/11 08:08:17;;;;;;;20.37;11.68;;;;;;;3.88;63.43;100000.67;1710178;83;25498;-67
2024/03/11 08:10:50;;;;;;;17.27;10.30;;;;;;;3.92;63.64;100006.56;1710199;83;27335;-68
2024/03/11 08:13:15;;;;;;;21.00;10.95;;;;;;;3.96;62.60;99997.45;1709533;83;25945;-68
2024/03/11 08:15:41;;;;;;;19.25;10.65;;;;;;;3.97;62.11;99984.86;1710175;83;25467;-68
2024/03/11 08:18:09;;;;;;;17.62;9.43;;;;;;;4.00;61.91;100003.88;1710162;83;25598;-68
2024/03/11 08:20:36;;;;;;;18.77;9.28;;;;;;;4.03;61.99;99999.30;1710241;83;25403;-67
2024/03/11 08:23:03;;;;;;;16.23;9.65;;;;;;;4.10;61.98;100007.05;1710101;83;27913;-66
2024/03/11 08:25:32;;;;;;;18.60;9.60;;;;;;;4.18;62.04;100001.13;1710077;83;25597;-67
2024/03/11 08:27:59;;;;;;;;;;;;;;;4.28;61.92;100013.14;1712720;83;25490;-68
2024/03/11 08:30:28;;;;;;;16.55;9.28;;;;;;;4.32;61.50;100011.27;1710121;83;26181;-68
2024/03/11 08:32:56;;;;;;;19.98;10.40;;;;;;;4.34;61.23;100024.63;1710340;83;25622;-68
2024/03/11 08:35:24;;;;;;;19.65;9.85;;;;;;;4.33;61.00;100000.28;1710132;83;28370;-67
2024/03/11 08:37:52;;;;;;;19.52;9.40;;;;;;;4.36;60.70;100020.34;1710083;83;25470;-67
2024/03/11 08:40:22;;;;;;;18.62;9.48;;;;;;;4.34;60.65;100012.58;1710177;83;25408;-67
2024/03/11 08:42:56;;;;;;;15.78;9.25;;;;;;;4.38;60.42;100020.89;1710119;83;26310;-67
2024/03/11 08:45:31;;;;;;;15.30;8.38;;;;;;;4.41;60.03;100014.45;1710042;83;25395;-66
2024/03/11 08:47:51;;;;;;;16.45;9.95;;;;;;;4.44;59.89;100015.76;1707270;83;27753;-66
2024/03/11 08:50:21;;;;;;;17.12;10.35;;;;;;;4.52;60.20;100019.76;1710076;83;25693;-67
2024/03/11 08:52:48;;;;;;;20.52;10.80;;;;;;;4.62;60.41;100021.84;1714062;82;25596;-66
2024/03/11 08:55:19;;;;;;;14.70;9.20;;;;;;;4.70;59.80;100015.12;1747973;82;25954;-67
2024/03/11 08:57:45;;;;;;;23.70;13.32;;;;;;;4.81;60.12;100019.87;1747949;82;25591;-68
2024/03/11 09:00:17;;;;;;;38.17;21.55;;;;;;;4.90;59.96;100003.45;1748049;82;28061;-68
2024/03/11 09:02:49;;;;;;;18.20;10.23;;;;;;;4.97;59.23;100025.41;1747976;82;25890;-68
2024/03/11 09:05:18;;;;;;;17.27;10.32;;;;;;;4.97;59.57;100012.01;1748109;82;25652;-68
2024/03/11 09:07:45;;;;;;;16.87;9.73;;;;;;;5.04;59.31;100013.04;1748106;82;26361;-67
2024/03/11 09:10:15;;;;;;;20.02;10.32;;;;;;;5.12;59.37;100009.73;1748049;81;25474;-66
2024/03/11 09:12:42;;;;;;;17.50;10.98;;;;;;;5.17;58.72;100013.72;1747881;82;28111;-68
2024/03/11 09:15:16;;;;;;;19.73;10.48;;;;;;;5.21;58.52;100018.80;1747934;82;25549;-56
2024/03/11 09:17:51;;;;;;;15.70;9.68;;;;;;;5.23;58.47;100013.96;1748065;82;25413;-55
2024/03/11 09:20:26;;;;;;;17.70;9.20;;;;;;;5.27;58.05;100020.11;1748027;82;25906;-56
2024/03/11 09:22:56;;;;;;;21.15;10.45;;;;;;;5.20;58.16;100019.87;1748126;81;25606;-55
2024/03/11 09:25:30;;;;;;;15.40;10.35;;;;;;;5.21;58.70;100021.48;1747996;82;28417;-57
2024/03/11 09:28:01;;;;;;;19.00;10.35;;;;;;;5.30;58.73;100023.58;1747984;82;25447;-57
2024/03/11 09:30:35;;;;;;;16.42;9.73;;;;;;;5.28;58.78;100039.12;1748008;82;25531;-57
2024/03/11 09:33:05;;;;;;;17.77;10.00;;;;;;;5.26;59.24;100021.17;1747991;81;26934;-58
2024/03/11 09:35:34;;;;;;;20.77;11.00;;;;;;;5.27;60.32;100009.38;1747996;82;25414;-55
2024/03/11 09:38:01;;;;;;;16.95;10.18;;;;;;;5.26;59.79;100039.44;1747974;82;28050;-55
2024/03/11 09:40:29;;;;;;;19.45;10.53;;;;;;;5.22;60.08;100035.69;1747937;82;25647;-59
2024/03/11 09:42:59;;;;;;;20.45;11.48;;;;;;;5.23;60.24;100027.92;1747969;82;25559;-57
2024/03/11 09:45:34;;;;;;;16.77;10.38;;;;;;;5.24;60.79;100030.84;1747981;82;25576;-57
2024/03/11 09:48:04;;;;;;;20.27;11.53;;;;;;;5.26;60.92;100033.25;1747843;81;25537;-56
2024/03/11 09:50:37;;;;;;;19.75;10.63;;;;;;;5.28;61.42;100041.80;1748066;82;27746;-56
2024/03/11 09:53:12;;;;;;;17.17;10.55;;;;;;;5.22;61.89;100054.45;1742809;81;25597;-57
2024/03/11 09:55:43;;;;;;;20.40;10.85;;;;;;;5.18;61.89;100026.61;1709869;83;25480;-56
2024/03/11 09:58:15;;;;;;;19.40;11.80;;;;;;;5.13;62.40;100031.46;1709950;83;25554;-56
2024/03/11 10:00:55;;;;;;;22.75;11.50;;;;;;;5.12;61.95;100024.48;1710390;83;25587;-55
2024/03/11 10:03:27;;;;;;;18.05;10.82;;;;;;;5.12;62.27;100023.69;1709847;83;28441;-56
2024/03/11 10:05:59;;;;;;;21.90;14.65;;;;;;;5.16;62.89;100035.45;1710212;83;25471;-65
2024/03/11 10:08:25;;;;;;;24.57;15.10;;;;;;;5.24;63.00;100020.94;1709387;83;25649;-64
2024/03/11 10:11:24;;;;;;;17.17;10.30;;;;;;;5.28;62.76;100023.03;1709294;83;25634;-64
2024/03/11 10:13:56;;;;;;;18.57;10.45;;;;;;;5.31;63.07;100015.77;1710276;83;25572;-64
2024/03/11 10:16:26;;;;;;;18.98;11.57;;;;;;;5.26;63.46;100027.36;1709777;83;27700;-64
2024/03/11 10:19:13;;;;;;;19.02;11.45;;;;;;;5.20;63.38;100022.55;1709774;83;25447;-64
2024/03/11 10:21:43;;;;;;;20.05;11.65;;;;;;;5.23;63.64;100018.53;1710059;83;25618;-64
2024/03/11 10:24:15;;;;;;;23.38;11.20;;;;;;;5.24;64.05;100017.43;1710194;83;26290;-64
2024/03/11 10:26:45;;;;;;;24.10;11.55;;;;;;;5.22;64.36;100013.69;1710348;83;25398;-65
2024/03/11 10:29:16;;;;;;;20.43;11.18;;;;;;;5.17;64.84;100002.20;1710062;83;27742;-65
2024/03/11 10:31:45;;;;;;;19.10;12.37;;;;;;;5.12;64.88;100019.13;1687620;83;25638;-63
2024/03/11 10:34:20;;;;;;;21.68;12.30;;;;;;;5.07;65.36;100023.18;1710222;83;25649;-64
2024/03/11 10:36:55;;;;;;;22.30;12.30;;;;;;;4.98;65.62;100018.95;1709969;83;26389;-64
2024/03/11 10:41:53;;;;;;;22.25;12.13;;;;;;;4.80;66.67;100016.40;1710181;83;28335;-65
2024/03/11 10:44:23;;;;;;;17.75;12.03;;;;;;;4.72;67.20;100031.71;1710228;83;25574;-64
2024/03/11 10:46:53;;;;;;;21.07;12.75;;;;;;;4.62;67.92;100020.50;1710348;83;25608;-65
2024/03/11 10:49:21;;;;;;;24.87;11.90;;;;;;;4.57;68.13;100026.43;1710095;83;25411;-65
2024/03/11 10:51:49;;;;;;;24.43;12.45;;;;;;;4.48;69.52;100017.63;1710358;83;25391;-65
2024/03/11 10:54:23;;;;;;;19.67;11.70;;;;;;;4.42;69.75;100028.08;1710074;82;27368;-65
2024/03/11 10:56:56;;;;;;;26.35;13.95;;;;;;;4.38;70.73;100019.55;1709848;83;25636;-66
2024/03/11 10:59:29;;;;;;;20.37;12.40;;;;;;;4.30;70.59;100010.98;1709486;83;25632;-65
2024/03/11 11:01:59;;;;;;;54.60;33.98;;;;;;;4.25;71.21;100020.37;1710518;83;25782;-69
2024/03/11 11:04:33;;;;;;;64.20;40.70;;;;;;;4.20;73.07;100024.41;1710742;83;25530;-63
2024/03/11 11:07:03;;;;;;;22.45;13.43;;;;;;;4.19;73.55;100011.30;1710519;83;27247;-69
2024/03/11 11:09:36;;;;;;;23.20;13.30;;;;;;;4.17;73.71;100018.80;1710249;83;25546;-67
2024/03/11 11:12:09;;;;;;;22.85;12.90;;;;;;;4.18;73.91;100020.42;1710200;83;25565;-63
2024/03/11 11:14:40;;;;;;;23.77;12.90;;;;;;;4.19;73.70;100014.80;1710284;83;25702;-65
2024/03/11 11:17:09;;;;;;;24.92;13.85;;;;;;;4.18;75.19;100019.08;1710273;83;25683;-65
2024/03/11 11:19:37;;;;;;;22.67;12.60;;;;;;;4.11;74.52;100020.16;1710259;83;27443;-66
2024/03/11 11:22:07;;;;;;;24.67;14.20;;;;;;;4.12;75.34;100010.27;1710029;83;25399;-66
2024/03/11 11:24:40;;;;;;;21.68;13.32;;;;;;;4.08;74.72;100030.06;1710212;83;25576;-65
2024/03/11 11:27:13;;;;;;;21.55;13.20;;;;;;;4.09;74.81;100022.31;1710203;83;25575;-65
2024/03/11 11:29:38;;;;;;;25.30;12.28;;;;;;;4.10;75.50;100017.75;1710024;83;25642;-65
2024/03/11 11:32:11;;;;;;;22.45;12.43;;;;;;;4.11;75.36;100011.34;1710196;83;27332;-66
2024/03/11 11:34:55;;;;;;;19.92;11.97;;;;;;;4.14;75.20;100030.05;1710203;83;25422;-66
2024/03/11 11:37:32;;;;;;;21.62;12.18;;;;;;;4.15;75.47;100023.63;1710076;83;25563;-66